createdAt,value
2022-08-31T00:03:55.667Z,102321.28
2022-08-31T00:08:57.708Z,102323.34
2022-08-31T00:14:02.207Z,102310.56
2022-08-31T00:19:05.452Z,102313.03
2022-08-31T00:24:07.228Z,102312.22
2022-08-31T00:29:09.630Z,102315.31
2022-08-31T00:34:11.555Z,102308.72
2022-08-31T00:39:14.906Z,102303.03
2022-08-31T00:44:17.231Z,102305.25
2022-08-31T00:49:31.222Z,102305.97
2022-08-31T00:54:36.331Z,102308.06
2022-08-31T00:59:40.969Z,102307.75
2022-08-31T01:04:42.534Z,102319.00
2022-08-31T01:09:53.259Z,102320.22
2022-08-31T01:14:58.519Z,102313.06
2022-08-31T01:20:15.451Z,102334.72
2022-08-31T01:25:18.773Z,102326.44
2022-08-31T01:30:23.543Z,102335.78
2022-08-31T01:35:25.231Z,102326.78
2022-08-31T01:40:34.089Z,102329.25
2022-08-31T01:45:35.660Z,102333.25
2022-08-31T01:50:37.181Z,102332.56
2022-08-31T01:55:39.324Z,102338.22
2022-08-31T02:00:41.391Z,102332.50
2022-08-31T02:05:42.994Z,102330.97
2022-08-31T02:10:44.558Z,102340.28
2022-08-31T02:15:46.080Z,102332.88
2022-08-31T02:20:47.570Z,102338.94
2022-08-31T02:25:49.401Z,102345.84
2022-08-31T02:30:50.909Z,102346.56
2022-08-31T02:35:53.812Z,102332.94
2022-08-31T02:40:55.401Z,102327.41
2022-08-31T02:45:56.978Z,102336.72
2022-08-31T02:51:05.682Z,102335.91
2022-08-31T02:56:08.078Z,102337.47
2022-08-31T03:01:10.347Z,102328.00
2022-08-31T03:06:11.909Z,102325.97
2022-08-31T03:11:14.194Z,102338.09
2022-08-31T03:16:15.957Z,102344.16
2022-08-31T03:21:17.499Z,102347.13
2022-08-31T03:26:19.018Z,102338.19
2022-08-31T03:31:20.599Z,102337.53
2022-08-31T03:36:22.187Z,102344.94
2022-08-31T03:41:25.378Z,102347.31
2022-08-31T03:46:26.912Z,102344.09
2022-08-31T03:51:28.951Z,102362.34
2022-08-31T03:56:30.749Z,102342.84
2022-08-31T04:01:32.304Z,102346.47
2022-08-31T04:06:33.916Z,102352.31
2022-08-31T04:11:45.136Z,102349.94
2022-08-31T04:16:47.277Z,102354.06
2022-08-31T04:21:50.090Z,102352.00
2022-08-31T04:26:52.943Z,102352.19
2022-08-31T04:31:54.483Z,102359.59
2022-08-31T04:36:56.041Z,102359.78
2022-08-31T04:41:57.523Z,102357.03
2022-08-31T04:46:59.129Z,102360.16
2022-08-31T04:52:00.721Z,102364.78
2022-08-31T04:57:04.807Z,102361.84
2022-08-31T05:02:06.401Z,102374.94
2022-08-31T05:07:07.978Z,102371.66
2022-08-31T05:12:09.476Z,102365.81
2022-08-31T05:17:14.899Z,102383.06
2022-08-31T05:22:16.841Z,102380.94
2022-08-31T05:27:18.338Z,102377.53
2022-08-31T05:32:19.860Z,102394.06
2022-08-31T05:37:24.288Z,102393.88
2022-08-31T05:42:26.240Z,102390.97
2022-08-31T05:47:28.689Z,102383.91
2022-08-31T05:52:30.237Z,102387.16
2022-08-31T05:57:31.826Z,102385.78
2022-08-31T06:02:35.084Z,102384.41
2022-08-31T06:07:36.586Z,102385.09
2022-08-31T06:12:39.042Z,102396.47
2022-08-31T06:17:40.546Z,102395.09
2022-08-31T06:22:45.134Z,102400.78
2022-08-31T06:27:50.410Z,102384.97
2022-08-31T06:32:54.698Z,102396.16
2022-08-31T06:37:59.608Z,102402.00
2022-08-31T06:43:01.110Z,102406.47
2022-08-31T06:48:04.556Z,102402.25
2022-08-31T06:53:06.062Z,102427.00
2022-08-31T06:58:07.559Z,102413.47
2022-08-31T07:03:24.242Z,102418.41
2022-08-31T07:08:25.689Z,102426.13
2022-08-31T07:13:27.215Z,102434.22
2022-08-31T07:18:28.691Z,102438.28
2022-08-31T07:23:30.191Z,102439.34
2022-08-31T07:28:31.875Z,102446.47
2022-08-31T07:33:38.962Z,102437.28
2022-08-31T07:39:00.416Z,102441.66
2022-08-31T07:44:02.012Z,102458.84
2022-08-31T07:49:08.879Z,102440.16
2022-08-31T07:54:10.941Z,102450.25
2022-08-31T07:59:14.947Z,102462.81
2022-08-31T08:04:26.234Z,102449.94
2022-08-31T08:09:29.909Z,102464.38
2022-08-31T08:14:36.264Z,102456.03
2022-08-31T08:19:37.760Z,102464.88
2022-08-31T08:24:40.039Z,102462.81
2022-08-31T08:29:42.563Z,102476.94
2022-08-31T08:34:44.751Z,102476.28
2022-08-31T08:39:46.231Z,102472.06
2022-08-31T08:44:48.104Z,102473.13
2022-08-31T08:49:58.671Z,102471.28
2022-08-31T08:55:04.110Z,102471.75
2022-08-31T09:00:11.051Z,102468.63
2022-08-31T09:05:12.568Z,102474.88
2022-08-31T09:10:46.436Z,102489.09
2022-08-31T09:16:09.315Z,102464.59
2022-08-31T09:21:34.466Z,102468.13
2022-08-31T09:27:17.281Z,102471.75
2022-08-31T09:32:26.893Z,102459.34
2022-08-31T09:37:38.113Z,102448.03
2022-08-31T09:42:40.389Z,102454.13
2022-08-31T09:47:53.470Z,102454.63
2022-08-31T09:53:33.573Z,102450.63
2022-08-31T09:58:35.086Z,102457.97
2022-08-31T10:03:38.103Z,102450.94
2022-08-31T10:08:46.191Z,102432.31
2022-08-31T10:13:57.744Z,102450.47
2022-08-31T10:19:09.754Z,102431.25
2022-08-31T10:24:28.054Z,102441.84
2022-08-31T10:29:40.223Z,102424.47
2022-08-31T10:35:00.567Z,102425.44
2022-08-31T10:40:10.166Z,102418.69
2022-08-31T10:45:19.032Z,102411.75
2022-08-31T10:50:45.097Z,102416.53
2022-08-31T10:56:08.139Z,102426.38
2022-08-31T11:01:34.628Z,102409.41
2022-08-31T11:06:51.498Z,102415.81
2022-08-31T11:12:04.974Z,102406.59
2022-08-31T11:17:29.917Z,102410.22
2022-08-31T11:22:38.163Z,102408.25
2022-08-31T11:28:10.313Z,102406.06
2022-08-31T11:33:20.336Z,102426.66
2022-08-31T11:38:48.799Z,102403.72
2022-08-31T11:43:52.254Z,102396.75
2022-08-31T11:48:54.486Z,102387.28
2022-08-31T11:53:56.238Z,102394.56
2022-08-31T11:59:37.853Z,102395.34
2022-08-31T12:04:43.412Z,102385.81
2022-08-31T12:10:27.204Z,102387.19
2022-08-31T12:15:51.365Z,102385.00
2022-08-31T12:21:31.890Z,102371.50
2022-08-31T12:26:45.543Z,102377.75
2022-08-31T12:32:12.663Z,102365.97
2022-08-31T12:37:19.143Z,102361.91
2022-08-31T12:42:20.641Z,102355.47
2022-08-31T12:47:56.003Z,102355.66
2022-08-31T12:53:17.448Z,102355.22
2022-08-31T12:58:56.420Z,102338.19
2022-08-31T13:04:03.345Z,102348.88
2022-08-31T13:09:05.560Z,102338.00
2022-08-31T13:14:19.917Z,102328.31
2022-08-31T13:19:28.013Z,102335.78
2022-08-31T13:24:33.454Z,102321.63
2022-08-31T13:29:41.189Z,102315.22
2022-08-31T13:34:42.821Z,102304.16
2022-08-31T13:39:46.440Z,102310.31
2022-08-31T13:44:54.394Z,102290.78
2022-08-31T13:50:13.249Z,102301.78
2022-08-31T13:55:30.971Z,102297.91
2022-08-31T14:00:32.434Z,102291.97
2022-08-31T14:05:38.034Z,102289.41
2022-08-31T14:10:49.560Z,102291.56
2022-08-31T14:15:54.910Z,102284.09
2022-08-31T14:21:26.653Z,102281.75
2022-08-31T14:26:34.183Z,102286.84
2022-08-31T14:31:51.999Z,102277.66
2022-08-31T14:37:08.655Z,102275.53
2022-08-31T14:42:27.142Z,102271.66
2022-08-31T14:47:31.700Z,102259.06
2022-08-31T14:52:38.724Z,102267.44
2022-08-31T14:57:43.811Z,102262.50
2022-08-31T15:02:49.603Z,102250.53
2022-08-31T15:07:53.406Z,102256.28
2022-08-31T15:12:55.675Z,102256.72
2022-08-31T15:17:57.251Z,102246.91
2022-08-31T15:22:59.031Z,102252.03
2022-08-31T15:28:01.765Z,102243.28
2022-08-31T15:33:03.283Z,102240.50
2022-08-31T15:38:06.437Z,102244.13
2022-08-31T15:43:15.065Z,102247.75
2022-08-31T15:48:35.369Z,102243.28
2022-08-31T15:53:37.954Z,102244.34
2022-08-31T15:58:39.468Z,102227.22
2022-08-31T16:03:41.977Z,102231.25
2022-08-31T16:08:43.569Z,102232.97
2022-08-31T16:13:52.118Z,102236.97
2022-08-31T16:18:57.096Z,102219.34
2022-08-31T16:24:01.006Z,102224.47
2022-08-31T16:29:04.807Z,102232.97
2022-08-31T16:34:06.810Z,102223.50
2022-08-31T16:39:09.146Z,102221.16
2022-08-31T16:44:19.675Z,102233.94
2022-08-31T16:49:33.572Z,102226.22
2022-08-31T16:54:41.222Z,102224.00
2022-08-31T16:59:43.365Z,102225.94
2022-08-31T17:04:52.525Z,102225.66
2022-08-31T17:10:03.952Z,102231.34
2022-08-31T17:15:06.096Z,102225.28
2022-08-31T17:20:08.281Z,102230.63
2022-08-31T17:25:09.961Z,102235.25
2022-08-31T17:30:11.677Z,102229.84
2022-08-31T17:35:18.025Z,102226.13
2022-08-31T17:40:19.784Z,102238.72
2022-08-31T17:45:21.559Z,102234.75
2022-08-31T17:50:23.055Z,102233.03
2022-08-31T17:55:24.586Z,102246.91
2022-08-31T18:00:28.256Z,102241.00
2022-08-31T18:05:29.826Z,102244.56
2022-08-31T18:10:31.543Z,102247.84
2022-08-31T18:15:33.885Z,102260.16
2022-08-31T18:20:39.316Z,102259.84
2022-08-31T18:25:42.240Z,102259.75
2022-08-31T18:30:44.090Z,102269.41
2022-08-31T18:35:46.569Z,102262.84
2022-08-31T18:41:06.531Z,102272.63
2022-08-31T18:46:09.125Z,102273.84
2022-08-31T18:51:13.629Z,102293.34
2022-08-31T18:56:18.147Z,102298.13
2022-08-31T19:01:19.723Z,102296.09
2022-08-31T19:06:24.919Z,102286.28
2022-08-31T19:11:27.132Z,102302.41
2022-08-31T19:16:29.017Z,102309.91
2022-08-31T19:21:33.161Z,102307.69
2022-08-31T19:26:38.317Z,102310.56
2022-08-31T19:31:44.259Z,102308.81
2022-08-31T19:36:50.299Z,102319.13
2022-08-31T19:41:56.823Z,102321.28
2022-08-31T19:46:59.863Z,102318.72
2022-08-31T19:52:05.700Z,102321.53
2022-08-31T19:57:08.891Z,102324.88
2022-08-31T20:02:11.295Z,102326.66
2022-08-31T20:07:13.554Z,102326.88
2022-08-31T20:12:15.089Z,102325.69
2022-08-31T20:17:16.730Z,102324.81
2022-08-31T20:22:20.264Z,102325.75
2022-08-31T20:27:21.765Z,102337.00
2022-08-31T20:32:25.566Z,102337.31
2022-08-31T20:37:27.076Z,102335.47
2022-08-31T20:42:28.614Z,102336.44
2022-08-31T20:47:48.471Z,102344.91
2022-08-31T20:52:51.000Z,102338.38
2022-08-31T20:57:52.674Z,102335.56
2022-08-31T21:02:55.334Z,102327.66
2022-08-31T21:07:57.279Z,102323.53
2022-08-31T21:13:00.978Z,102335.47
2022-08-31T21:18:02.494Z,102323.44
2022-08-31T21:23:04.430Z,102313.78
2022-08-31T21:28:06.925Z,102325.38
2022-08-31T21:33:08.408Z,102321.22
2022-08-31T21:38:12.979Z,102332.50
2022-08-31T21:43:14.715Z,102340.81
2022-08-31T21:48:16.236Z,102333.03
2022-08-31T21:53:18.630Z,102335.09
2022-08-31T21:58:20.181Z,102319.97
2022-08-31T22:03:22.635Z,102320.84
2022-08-31T22:08:26.050Z,102316.53
2022-08-31T22:13:27.562Z,102325.19
2022-08-31T22:23:58.349Z,102304.31
2022-08-31T22:28:59.928Z,102312.06
2022-08-31T22:34:01.415Z,102306.75
2022-08-31T22:39:12.738Z,102304.34
2022-08-31T22:44:17.824Z,102310.38
2022-08-31T22:49:19.597Z,102313.13
2022-08-31T22:54:22.696Z,102303.31
2022-08-31T22:59:30.405Z,102303.00
2022-08-31T23:04:34.350Z,102313.72
2022-08-31T23:09:36.197Z,102291.28
2022-08-31T23:14:38.210Z,102287.19
2022-08-31T23:19:43.453Z,102289.13
2022-08-31T23:24:47.711Z,102273.28
2022-08-31T23:29:52.673Z,102273.97
2022-08-31T23:34:56.897Z,102273.13
2022-08-31T23:39:59.881Z,102270.75
2022-08-31T23:45:02.057Z,102275.06
2022-08-31T23:50:09.328Z,102271.59
2022-08-31T23:55:11.088Z,102263.81
